Time;durP1;ratioP1;P1;durP2;ratioP2;P2;SDS_P1;SDS_P2;PMS_P1;PMS_P2;Temp;Humidity;BMP_temperature;BMP_pressure;BME280_temperature;BME280_humidity;BME280_pressure;Samples;Min_cycle;Max_cycle;Signal;HPM_P1;HPM_P2
2021/09/01 00:01:26;;;;;;;;;21.00;18.50;;;;;19.16;61.77;102380.25;6275597;22;45962;-54
2021/09/01 00:03:52;;;;;;;;;21.50;17.50;;;;;19.15;61.20;102391.03;6275382;22;45076;-53
2021/09/01 00:06:18;;;;;;;;;21.00;18.00;;;;;19.12;61.80;102384.09;6274717;22;45189;-54
2021/09/01 00:08:44;;;;;;;;;23.50;19.00;;;;;19.12;61.42;102380.59;6275445;22;45172;-54
2021/09/01 00:11:09;;;;;;;;;20.25;16.75;;;;;19.12;61.44;102383.25;6274600;22;46171;-55
2021/09/01 00:13:35;;;;;;;;;20.75;18.50;;;;;19.10;61.88;102390.50;6275240;22;45250;-55
2021/09/01 00:16:00;;;;;;;;;21.00;20.75;;;;;19.07;62.03;102390.72;6275073;22;45221;-56
2021/09/01 00:18:26;;;;;;;;;23.25;19.50;;;;;19.01;62.11;102383.97;6275559;22;45524;-53
2021/09/01 00:20:51;;;;;;;;;28.00;21.75;;;;;18.98;61.98;102392.22;6274439;22;46247;-54
2021/09/01 00:23:17;;;;;;;;;22.25;18.25;;;;;18.94;61.96;102388.03;6275171;22;45194;-54
2021/09/01 00:25:43;;;;;;;;;19.00;16.75;;;;;18.91;62.09;102386.41;6275384;22;45219;-56
2021/09/01 00:28:09;;;;;;;;;22.25;16.50;;;;;18.90;62.32;102387.38;6274954;22;45370;-55
2021/09/01 00:30:34;;;;;;;;;21.00;15.25;;;;;18.86;62.37;102382.34;6275694;22;45289;-56
2021/09/01 00:33:00;;;;;;;;;25.25;18.75;;;;;18.85;62.44;102381.50;6275572;22;45237;-56
2021/09/01 00:35:26;;;;;;;;;23.00;18.75;;;;;18.83;62.79;102393.25;6275497;22;45310;-54
2021/09/01 00:37:51;;;;;;;;;17.25;15.75;;;;;18.80;62.89;102385.44;6275170;22;45193;-53
2021/09/01 00:40:17;;;;;;;;;19.50;18.25;;;;;18.76;63.07;102384.78;6274890;22;45168;-54
2021/09/01 00:42:42;;;;;;;;;22.50;18.50;;;;;18.77;62.96;102383.84;6275229;22;45288;-55
2021/09/01 00:45:08;;;;;;;;;18.50;16.25;;;;;18.77;63.28;102389.16;6275235;22;45437;-55
2021/09/01 00:47:36;;;;;;;;;19.75;15.50;;;;;18.78;62.94;102396.22;6275339;22;45364;-55
2021/09/01 00:50:08;;;;;;;;;20.75;20.50;;;;;18.79;63.09;102392.59;6274807;22;45320;-55
2021/09/01 00:52:35;;;;;;;;;17.75;16.00;;;;;18.79;63.26;102397.06;6275087;22;45193;-55
2021/09/01 00:55:02;;;;;;;;;17.00;16.75;;;;;18.74;63.31;102396.53;6275357;22;45260;-54
2021/09/01 00:57:27;;;;;;;;;22.00;18.50;;;;;18.71;63.17;102397.59;6275305;22;45310;-54
2021/09/01 00:59:53;;;;;;;;;25.75;20.75;;;;;18.64;63.55;102394.47;6275308;22;45331;-55
2021/09/01 01:02:21;;;;;;;;;23.00;19.50;;;;;18.63;63.25;102394.53;6274849;22;45324;-54
2021/09/01 01:04:46;;;;;;;;;18.00;18.00;;;;;18.62;63.29;102393.69;6274683;22;45100;-55
2021/09/01 01:07:12;;;;;;;;;25.25;21.25;;;;;18.60;63.20;102403.63;6275172;22;45256;-55
2021/09/01 01:09:40;;;;;;;;;20.00;17.50;;;;;18.58;63.69;102394.88;6275178;22;45181;-55
2021/09/01 01:12:13;;;;;;;;;25.50;20.75;;;;;18.54;63.93;102398.69;6275487;22;45179;-54
2021/09/01 01:14:41;;;;;;;;;24.50;18.00;;;;;18.52;63.71;102395.28;6275012;22;45239;-54
2021/09/01 01:17:08;;;;;;;;;22.25;19.50;;;;;18.51;63.85;102403.38;6275513;22;45284;-54
2021/09/01 01:19:46;;;;;;;;;26.50;18.50;;;;;18.47;63.87;102401.84;6274679;22;45368;-54
2021/09/01 01:22:14;;;;;;;;;22.00;21.25;;;;;18.43;63.61;102395.88;6274424;22;45135;-55
2021/09/01 01:24:47;;;;;;;;;20.00;18.00;;;;;18.44;64.13;102399.41;6274885;22;45135;-53
2021/09/01 01:27:33;;;;;;;;;18.50;16.75;;;;;18.42;64.10;102389.69;6275099;22;45169;-54
2021/09/01 01:30:20;;;;;;;;;19.50;15.75;;;;;18.38;64.05;102382.84;6274721;22;46348;-54
2021/09/01 01:32:48;;;;;;;;;22.50;19.00;;;;;18.36;64.41;102384.75;6274680;22;45211;-55
2021/09/01 01:35:27;;;;;;;;;27.75;21.50;;;;;18.29;64.10;102377.25;6274251;22;45338;-55
2021/09/01 01:37:54;;;;;;;;;26.75;21.50;;;;;18.28;64.43;102387.06;6274228;22;45252;-54
2021/09/01 01:40:21;;;;;;;;;24.50;19.25;;;;;18.25;64.57;102387.28;6274664;22;46056;-54
2021/09/01 01:42:47;;;;;;;;;20.50;18.00;;;;;18.24;64.77;102377.53;6274860;22;45348;-54
2021/09/01 01:45:12;;;;;;;;;28.00;19.25;;;;;18.22;64.48;102387.47;6274422;22;45231;-55
2021/09/01 01:47:38;;;;;;;;;28.50;22.00;;;;;18.24;64.48;102379.34;6274763;22;45491;-55
2021/09/01 01:50:05;;;;;;;;;24.00;21.25;;;;;18.22;64.82;102389.28;6274478;22;45577;-53
2021/09/01 01:52:30;;;;;;;;;26.00;22.50;;;;;18.23;64.86;102385.66;6274480;22;45337;-54
2021/09/01 01:54:56;;;;;;;;;24.75;24.00;;;;;18.23;64.72;102380.31;6275075;22;45336;-55
2021/09/01 01:57:21;;;;;;;;;23.50;19.50;;;;;18.22;64.78;102383.94;6275055;22;45243;-55
2021/09/01 01:59:47;;;;;;;;;30.25;25.50;;;;;18.20;64.50;102385.88;6274800;22;45424;-53
2021/09/01 02:02:12;;;;;;;;;27.25;23.75;;;;;18.18;64.80;102391.31;6274928;22;45265;-54
2021/09/01 02:04:38;;;;;;;;;27.00;22.75;;;;;18.14;64.94;102385.28;6274719;22;45132;-51
2021/09/01 02:07:03;;;;;;;;;27.25;24.50;;;;;18.13;64.88;102383.59;6274948;22;45392;-55
2021/09/01 02:09:29;;;;;;;;;24.75;23.25;;;;;18.10;65.19;102386.47;6274713;22;45248;-56
2021/09/01 02:11:54;;;;;;;;;26.00;24.50;;;;;18.07;64.96;102388.47;6274888;22;45115;-54
2021/09/01 02:14:20;;;;;;;;;26.75;23.00;;;;;18.02;65.03;102388.78;6274627;22;45242;-53
2021/09/01 02:16:45;;;;;;;;;23.00;21.50;;;;;18.03;65.04;102392.28;6275027;22;45163;-55
2021/09/01 02:19:11;;;;;;;;;26.75;22.00;;;;;18.04;65.03;102396.66;6273711;22;45282;-55
2021/09/01 02:21:37;;;;;;;;;29.50;24.00;;;;;18.03;65.18;102398.47;6274725;22;45288;-55
2021/09/01 02:24:05;;;;;;;;;27.75;23.50;;;;;18.00;65.25;102389.81;6274241;22;45258;-56
2021/09/01 02:26:30;;;;;;;;;32.50;29.00;;;;;17.98;65.35;102389.91;6274647;22;45426;-55
2021/09/01 02:28:56;;;;;;;;;30.25;25.75;;;;;17.99;65.40;102393.44;6274621;22;45812;-55
2021/09/01 02:31:22;;;;;;;;;26.00;22.75;;;;;18.01;65.25;102396.84;6274621;22;45152;-54
2021/09/01 02:33:47;;;;;;;;;24.75;24.25;;;;;18.02;65.35;102402.09;6274632;22;45160;-55
2021/09/01 02:36:13;;;;;;;;;28.25;24.00;;;;;18.01;65.27;102395.06;6274251;22;45178;-55
2021/09/01 02:38:41;;;;;;;;;24.75;23.00;;;;;18.01;65.43;102405.72;6273516;22;46366;-54
2021/09/01 02:41:08;;;;;;;;;30.00;24.00;;;;;17.97;65.48;102398.00;6274056;22;45290;-56
2021/09/01 02:43:33;;;;;;;;;27.00;24.00;;;;;17.95;65.48;102397.25;6274671;22;45235;-55
2021/09/01 02:45:59;;;;;;;;;31.25;25.75;;;;;17.98;65.34;102403.25;6274089;22;45294;-55
2021/09/01 02:48:24;;;;;;;;;30.75;24.50;;;;;17.99;65.64;102402.28;6274005;22;45256;-54
2021/09/01 02:50:52;;;;;;;;;28.00;24.00;;;;;17.97;65.22;102398.88;6273868;22;45239;-53
2021/09/01 02:53:17;;;;;;;;;;;;;;;17.97;65.22;102396.19;6277168;22;45298;-54
2021/09/01 02:55:43;;;;;;;;;36.00;23.25;;;;;17.98;65.41;102395.25;6274330;22;45562;-54
2021/09/01 02:58:08;;;;;;;;;23.25;21.25;;;;;18.00;65.59;102397.81;6274229;22;45914;-55
2021/09/01 03:00:34;;;;;;;;;26.75;24.50;;;;;18.03;65.34;102398.47;6274155;22;45247;-55
2021/09/01 03:02:59;;;;;;;;;23.25;23.00;;;;;18.07;65.47;102402.66;6273624;22;45166;-54
2021/09/01 03:05:25;;;;;;;;;29.50;23.25;;;;;18.08;65.40;102404.34;6274418;22;45424;-53
2021/09/01 03:07:50;;;;;;;;;28.25;25.50;;;;;18.08;65.41;102400.84;6273453;22;46136;-56
2021/09/01 03:10:16;;;;;;;;;28.75;25.00;;;;;18.08;65.19;102399.03;6274247;22;45217;-51
2021/09/01 03:12:41;;;;;;;;;28.25;26.00;;;;;18.10;65.41;102409.63;6273809;22;45282;-52
2021/09/01 03:15:07;;;;;;;;;28.00;23.25;;;;;18.12;65.06;102405.03;6274190;22;45289;-54
2021/09/01 03:17:32;;;;;;;;;25.50;24.00;;;;;18.10;65.15;102409.63;6274064;22;46161;-51
2021/09/01 03:19:58;;;;;;;;;32.50;25.00;;;;;18.05;64.80;102407.22;6273863;22;45402;-53
2021/09/01 03:22:23;;;;;;;;;28.75;23.75;;;;;18.05;64.99;102406.38;6274134;22;45282;-54
2021/09/01 03:24:49;;;;;;;;;30.75;24.75;;;;;18.04;65.17;102402.00;6273981;22;45213;-55
2021/09/01 03:27:14;;;;;;;;;25.50;23.00;;;;;18.05;64.86;102401.91;6273426;22;45299;-54
2021/09/01 03:29:40;;;;;;;;;21.75;21.75;;;;;18.02;64.86;102399.44;6273885;22;45235;-54
2021/09/01 03:32:05;;;;;;;;;27.50;22.50;;;;;17.99;65.28;102410.28;6274358;22;45198;-54
2021/09/01 03:34:31;;;;;;;;;26.75;22.50;;;;;17.98;65.05;102397.91;6273507;22;45534;-55
2021/09/01 03:36:56;;;;;;;;;33.50;24.25;;;;;17.95;64.92;102398.13;6273846;22;45920;-55
2021/09/01 03:39:22;;;;;;;;;24.75;22.25;;;;;17.93;64.89;102400.03;6273741;22;45114;-55
2021/09/01 03:41:47;;;;;;;;;24.00;22.75;;;;;17.92;64.90;102398.28;6274515;22;45467;-54
2021/09/01 03:44:13;;;;;;;;;23.75;21.75;;;;;17.91;65.03;102399.25;6274219;22;45514;-54
2021/09/01 03:46:38;;;;;;;;;31.00;24.50;;;;;17.89;64.92;102394.97;6273659;22;45154;-54
2021/09/01 03:49:04;;;;;;;;;25.25;24.00;;;;;17.89;65.06;102397.66;6273509;22;45218;-53
2021/09/01 03:51:29;;;;;;;;;28.50;20.00;;;;;17.85;65.05;102399.63;6274010;22;45381;-54
2021/09/01 03:53:55;;;;;;;;;28.00;26.00;;;;;17.84;65.05;102404.09;6273951;22;45412;-56
2021/09/01 03:56:20;;;;;;;;;27.00;23.00;;;;;17.84;65.38;102411.25;6273945;22;46252;-56
2021/09/01 03:58:45;;;;;;;;;30.25;24.25;;;;;17.79;65.27;102411.56;6274087;22;45137;-55
2021/09/01 04:01:11;;;;;;;;;33.75;25.75;;;;;17.79;65.46;102414.22;6274125;22;45212;-55
2021/09/01 04:03:36;;;;;;;;;28.00;25.75;;;;;17.75;65.28;102409.16;6275175;22;45230;-55
2021/09/01 04:06:03;;;;;;;;;23.00;21.25;;;;;17.71;65.56;102407.66;6274935;22;45254;-53
2021/09/01 04:08:29;;;;;;;;;29.25;25.25;;;;;17.70;65.62;102413.94;6275564;22;45252;-54
2021/09/01 04:10:54;;;;;;;;;32.75;25.00;;;;;17.67;65.70;102408.75;6276284;22;45374;-55
2021/09/01 04:13:20;;;;;;;;;26.25;24.25;;;;;17.71;65.88;102411.19;6275359;22;45521;-53
2021/09/01 04:15:45;;;;;;;;;36.00;27.25;;;;;17.75;65.58;102404.69;6275449;22;46207;-55
2021/09/01 04:18:11;;;;;;;;;29.75;26.50;;;;;17.78;65.78;102401.84;6275518;22;45247;-56
2021/09/01 04:20:36;;;;;;;;;36.00;27.25;;;;;17.80;65.46;102407.09;6275256;22;45160;-52
2021/09/01 04:23:02;;;;;;;;;30.25;25.75;;;;;17.81;65.25;102409.66;6275807;22;45408;-53
2021/09/01 04:25:28;;;;;;;;;27.25;25.00;;;;;17.80;65.46;102407.94;6274597;22;45516;-55
2021/09/01 04:27:54;;;;;;;;;31.75;26.25;;;;;17.76;65.28;102408.22;6275148;22;45248;-55
2021/09/01 04:30:19;;;;;;;;;36.50;26.25;;;;;17.73;65.47;102403.94;6275369;22;45181;-54
2021/09/01 04:32:45;;;;;;;;;25.25;24.00;;;;;17.72;65.47;102407.56;6275973;22;45082;-53
2021/09/01 04:35:10;;;;;;;;;30.75;27.25;;;;;17.68;65.60;102403.34;6274688;22;45308;-54
2021/09/01 04:37:36;;;;;;;;;30.00;26.50;;;;;17.65;65.63;102408.00;6274278;22;45270;-55
2021/09/01 04:40:01;;;;;;;;;28.00;25.75;;;;;17.57;65.70;102403.16;6275705;22;45401;-55
2021/09/01 04:42:27;;;;;;;;;30.50;26.50;;;;;17.56;65.77;102404.13;6275916;22;45407;-51
2021/09/01 04:44:52;;;;;;;;;27.25;25.00;;;;;17.59;65.83;102410.09;6275138;22;45273;-55
2021/09/01 04:47:17;;;;;;;;;29.25;24.75;;;;;17.61;65.85;102417.13;6275424;22;45338;-55
2021/09/01 04:49:43;;;;;;;;;26.25;22.00;;;;;17.62;65.98;102435.72;6275349;22;45278;-55
2021/09/01 04:52:08;;;;;;;;;32.25;29.50;;;;;17.61;65.77;102433.13;6275366;22;45307;-55
2021/09/01 04:54:34;;;;;;;;;26.00;22.75;;;;;17.61;65.97;102430.47;6275252;22;45316;-52
2021/09/01 04:56:59;;;;;;;;;35.00;25.25;;;;;17.64;65.93;102430.28;6275309;22;45387;-54
2021/09/01 04:59:25;;;;;;;;;27.25;23.00;;;;;17.63;65.95;102429.44;6275138;22;45282;-55
2021/09/01 05:01:50;;;;;;;;;32.00;29.25;;;;;17.61;66.19;102428.66;6275617;22;45488;-55
2021/09/01 05:04:16;;;;;;;;;26.50;24.25;;;;;17.62;65.92;102429.53;6275413;22;45913;-54
2021/09/01 05:06:41;;;;;;;;;28.50;23.75;;;;;17.63;65.90;102429.44;6274877;22;45291;-55
2021/09/01 05:09:07;;;;;;;;;30.00;26.00;;;;;17.65;65.77;102422.19;6275143;22;45094;-56
2021/09/01 05:11:32;;;;;;;;;26.75;24.00;;;;;17.68;65.95;102421.13;6275568;22;45108;-56
2021/09/01 05:13:57;;;;;;;;;29.25;25.50;;;;;17.65;65.77;102426.66;6274619;22;45382;-56
2021/09/01 05:16:23;;;;;;;;;30.00;22.75;;;;;17.62;65.87;102418.88;6274875;22;45142;-53
2021/09/01 05:18:48;;;;;;;;;30.50;24.25;;;;;17.60;65.88;102413.63;6274348;22;45132;-51
2021/09/01 05:21:15;;;;;;;;;32.25;26.25;;;;;17.62;65.68;102417.06;6274991;22;45156;-55
2021/09/01 05:23:42;;;;;;;;;27.75;24.25;;;;;17.63;65.81;102425.91;6275299;22;45236;-54
2021/09/01 05:26:09;;;;;;;;;32.75;27.50;;;;;17.59;65.90;102423.41;6274659;22;45346;-49
2021/09/01 05:28:36;;;;;;;;;24.75;21.50;;;;;17.55;65.83;102431.72;6274591;22;45242;-55
2021/09/01 05:31:04;;;;;;;;;24.00;21.25;;;;;17.53;65.97;102430.94;6275451;22;45390;-53
2021/09/01 05:33:35;;;;;;;;;28.25;24.00;;;;;17.49;65.91;102429.44;6274425;22;45247;-54
2021/09/01 05:36:03;;;;;;;;;27.00;23.75;;;;;17.50;66.22;102426.66;6274445;22;45345;-54
2021/09/01 05:38:32;;;;;;;;;33.75;28.00;;;;;17.51;66.06;102430.19;6274668;22;45289;-55
2021/09/01 05:40:59;;;;;;;;;26.50;23.50;;;;;17.50;66.29;102441.78;6274532;22;45261;-51
2021/09/01 05:43:26;;;;;;;;;28.25;23.00;;;;;17.51;66.11;102435.50;6274872;22;45296;-55
2021/09/01 05:45:52;;;;;;;;;30.00;27.00;;;;;17.52;66.19;102438.06;6274153;22;45335;-55
2021/09/01 05:48:22;;;;;;;;;31.75;26.00;;;;;17.54;66.08;102448.66;6274796;22;45154;-50
2021/09/01 05:50:53;;;;;;;;;30.00;27.75;;;;;17.54;66.17;102444.19;6274364;22;45379;-53
2021/09/01 05:53:19;;;;;;;;;26.50;23.00;;;;;17.56;65.94;102446.75;6274060;22;45238;-54
2021/09/01 05:55:49;;;;;;;;;31.50;25.25;;;;;17.60;66.11;102461.59;6274500;22;45229;-55
2021/09/01 05:58:17;;;;;;;;;30.75;25.00;;;;;17.62;65.73;102442.88;6274516;22;45228;-55
2021/09/01 06:00:44;;;;;;;;;30.50;25.50;;;;;17.58;65.77;102451.03;6274180;22;45814;-52
2021/09/01 06:03:23;;;;;;;;;24.25;22.50;;;;;17.56;65.92;102454.75;6274265;22;46107;-54
2021/09/01 06:05:53;;;;;;;;;28.25;25.00;;;;;17.59;65.94;102451.88;6273704;22;45325;-56
2021/09/01 06:08:25;;;;;;;;;30.50;25.00;;;;;17.61;66.03;102452.63;6274447;22;45254;-56
2021/09/01 06:10:57;;;;;;;;;29.75;23.25;;;;;17.65;66.08;102443.50;6274746;22;45248;-55
2021/09/01 06:13:23;;;;;;;;;27.00;24.00;;;;;17.68;65.58;102453.13;6273753;22;45320;-52
2021/09/01 06:15:48;;;;;;;;;26.50;26.00;;;;;17.67;65.61;102446.94;6273970;22;45188;-53
2021/09/01 06:18:14;;;;;;;;;36.00;28.00;;;;;17.69;65.54;102444.16;6272366;22;45334;-54
2021/09/01 06:20:40;;;;;;;;;27.00;23.50;;;;;17.66;65.53;102449.69;6274277;22;45323;-55
2021/09/01 06:23:06;;;;;;;;;28.50;25.50;;;;;17.65;65.61;102432.00;6273902;22;45795;-54
2021/09/01 06:25:32;;;;;;;;;28.25;23.00;;;;;17.69;65.86;102441.50;6273912;22;45181;-53
2021/09/01 06:27:58;;;;;;;;;28.50;26.25;;;;;17.69;65.59;102445.03;6274403;22;45242;-55
2021/09/01 06:30:24;;;;;;;;;27.50;25.75;;;;;17.69;65.56;102429.03;6274683;22;45208;-50
2021/09/01 06:32:49;;;;;;;;;27.75;22.75;;;;;17.68;65.75;102440.66;6273807;22;45152;-58
2021/09/01 06:35:15;;;;;;;;;25.25;21.50;;;;;17.73;65.84;102433.25;6273330;22;45274;-56
2021/09/01 06:37:42;;;;;;;;;31.25;24.00;;;;;17.76;65.77;102433.06;6273234;22;45388;-55
2021/09/01 06:40:09;;;;;;;;;27.25;23.25;;;;;17.74;65.84;102434.97;6273843;22;45258;-57
2021/09/01 06:42:35;;;;;;;;;34.00;26.25;;;;;17.76;65.90;102432.22;6273304;22;46116;-56
2021/09/01 06:45:00;;;;;;;;;28.75;25.50;;;;;17.77;65.94;102431.25;6273559;22;45304;-57
2021/09/01 06:47:26;;;;;;;;;29.00;25.50;;;;;17.78;65.45;102428.50;6273814;22;45460;-57
2021/09/01 06:49:51;;;;;;;;;25.50;24.00;;;;;17.83;65.72;102438.88;6273731;22;45325;-57
2021/09/01 06:52:17;;;;;;;;;29.75;23.75;;;;;17.86;65.69;102436.03;6273570;22;45255;-58
2021/09/01 06:54:43;;;;;;;;;26.75;21.25;;;;;17.89;65.46;102429.63;6273941;22;45193;-59
2021/09/01 06:57:09;;;;;;;;;25.75;23.25;;;;;17.93;65.63;102431.13;6274220;22;45283;-58
2021/09/01 06:59:34;;;;;;;;;35.50;26.25;;;;;17.92;65.58;102429.44;6274273;22;45221;-60
2021/09/01 07:01:59;;;;;;;;;31.50;27.75;;;;;17.95;65.33;102432.78;6273989;22;45243;-58
2021/09/01 07:04:25;;;;;;;;;26.25;23.25;;;;;18.00;65.44;102433.31;6272976;22;45210;-60
2021/09/01 07:06:50;;;;;;;;;26.50;24.75;;;;;17.99;65.23;102434.28;6271407;22;45288;-59
2021/09/01 07:09:16;;;;;;;;;28.25;25.25;;;;;18.03;65.11;102434.97;6273732;22;45459;-59
2021/09/01 07:11:41;;;;;;;;;29.00;26.00;;;;;18.05;65.02;102435.72;6274021;22;45153;-60
2021/09/01 07:14:07;;;;;;;;;26.75;25.50;;;;;18.09;65.10;102435.44;6274143;22;45250;-60
2021/09/01 07:16:34;;;;;;;;;26.75;24.00;;;;;18.13;64.94;102441.41;6273358;22;45235;-59
2021/09/01 07:18:59;;;;;;;;;30.75;25.50;;;;;18.11;64.74;102422.84;6273331;22;45348;-60
2021/09/01 07:21:25;;;;;;;;;30.00;24.25;;;;;18.11;64.84;102430.84;6271333;22;46583;-60
2021/09/01 07:23:50;;;;;;;;;21.00;21.00;;;;;18.13;64.35;102428.94;6274161;22;45320;-60
2021/09/01 07:26:16;;;;;;;;;23.50;21.75;;;;;18.13;64.82;102420.94;6273682;22;45327;-60
2021/09/01 07:28:41;;;;;;;;;30.25;25.25;;;;;18.17;64.51;102426.94;6273985;22;45716;-60
2021/09/01 07:31:09;;;;;;;;;26.75;23.25;;;;;18.22;64.61;102423.97;6274136;22;45148;-60
2021/09/01 07:33:35;;;;;;;;;20.00;20.00;;;;;18.25;64.49;102413.97;6273285;22;45181;-59
2021/09/01 07:36:01;;;;;;;;;29.25;22.75;;;;;18.26;64.11;102421.00;6273812;22;45087;-60
2021/09/01 07:38:27;;;;;;;;;30.50;25.75;;;;;18.26;64.34;102417.47;6276203;22;45397;-60
2021/09/01 07:40:53;;;;;;;;;27.25;22.50;;;;;18.29;64.30;102410.13;6275639;22;45275;-60
2021/09/01 07:43:19;;;;;;;;;19.75;19.50;;;;;18.31;64.21;102415.34;6275727;22;45360;-60
2021/09/01 07:45:46;;;;;;;;;32.25;27.25;;;;;18.35;64.05;102425.72;6275448;22;45420;-59
2021/09/01 07:48:15;;;;;;;;;25.25;22.25;;;;;18.34;63.75;102426.69;6275534;22;45185;-60
2021/09/01 07:50:42;;;;;;;;;27.50;23.00;;;;;18.32;63.99;102431.25;6273897;22;45290;-60
2021/09/01 07:53:08;;;;;;;;;23.75;22.00;;;;;18.31;63.97;102429.53;6275595;22;45359;-60
2021/09/01 07:55:33;;;;;;;;;28.75;24.25;;;;;18.30;63.85;102434.97;6275701;22;45306;-61
2021/09/01 07:57:59;;;;;;;;;26.00;22.25;;;;;18.29;63.64;102436.78;6276124;22;45261;-61
2021/09/01 08:00:25;;;;;;;;;26.75;21.25;;;;;18.30;64.17;102438.50;6275665;22;46029;-61
2021/09/01 08:02:52;;;;;;;;;26.50;21.75;;;;;18.31;63.86;102436.69;6275345;22;45329;-63
2021/09/01 08:05:18;;;;;;;;;27.00;23.75;;;;;18.34;64.18;102434.69;6275506;22;45459;-59
2021/09/01 08:07:43;;;;;;;;;28.50;25.00;;;;;18.39;63.80;102426.38;6276045;22;45255;-61
2021/09/01 08:10:09;;;;;;;;;25.00;22.75;;;;;18.45;64.06;102433.97;6275579;22;45906;-60
2021/09/01 08:12:35;;;;;;;;;25.25;22.50;;;;;18.48;63.81;102431.09;6275884;22;45155;-60
2021/09/01 08:15:00;;;;;;;;;26.75;26.00;;;;;18.48;63.65;102425.75;6275842;22;45199;-60
2021/09/01 08:17:26;;;;;;;;;48.50;36.00;;;;;18.51;63.12;102430.06;6275720;22;45247;-61
2021/09/01 08:19:51;;;;;;;;;29.00;23.25;;;;;18.52;63.45;102432.63;6274781;22;45382;-61
2021/09/01 08:22:17;;;;;;;;;31.25;25.00;;;;;18.56;63.28;102426.13;6275623;22;45251;-61
2021/09/01 08:24:43;;;;;;;;;27.25;22.25;;;;;18.62;62.88;102422.19;6273665;22;45321;-61
2021/09/01 08:27:11;;;;;;;;;26.25;23.00;;;;;18.69;63.10;102419.06;6273485;22;45371;-61
2021/09/01 08:29:37;;;;;;;;;26.75;19.75;;;;;18.76;63.11;102424.84;6275340;22;45162;-60
2021/09/01 08:32:04;;;;;;;;;23.00;22.25;;;;;18.82;62.59;102420.91;6275560;22;45185;-60
2021/09/01 08:34:30;;;;;;;;;23.75;22.75;;;;;18.86;62.46;102423.25;6275203;22;45226;-61
2021/09/01 08:36:56;;;;;;;;;29.75;26.75;;;;;18.91;62.54;102425.63;6275492;22;45304;-61
2021/09/01 08:39:22;;;;;;;;;24.00;21.75;;;;;18.95;62.19;102427.97;6274377;22;46047;-61
2021/09/01 08:41:47;;;;;;;;;25.25;23.00;;;;;19.02;62.33;102425.75;6275377;22;45292;-61
2021/09/01 08:44:13;;;;;;;;;;;;;;;19.04;62.18;102428.31;6279055;22;45227;-61
2021/09/01 08:46:42;;;;;;;;;25.00;22.50;;;;;19.06;62.01;102431.75;6275225;22;45429;-61
2021/09/01 08:49:08;;;;;;;;;28.75;26.50;;;;;19.10;62.27;102420.72;6273979;22;46162;-61
2021/09/01 08:51:34;;;;;;;;;28.50;22.00;;;;;19.17;61.99;102426.50;6275254;22;45226;-61
2021/09/01 08:54:00;;;;;;;;;26.75;21.50;;;;;19.25;62.28;102432.19;6275424;22;45129;-61
2021/09/01 08:56:26;;;;;;;;;21.75;20.00;;;;;19.34;61.82;102428.00;6275362;22;45183;-61
2021/09/01 08:58:52;;;;;;;;;30.00;21.75;;;;;19.45;61.45;102441.50;6274952;22;45235;-61
2021/09/01 09:01:40;;;;;;;;;29.25;23.25;;;;;19.55;61.53;102439.88;6274830;22;45321;-61
2021/09/01 09:04:07;;;;;;;;;23.75;19.00;;;;;19.62;61.46;102437.69;6274419;22;45281;-61
2021/09/01 09:07:12;;;;;;;;;26.25;21.75;;;;;19.65;60.66;102438.31;6274808;22;45155;-61
2021/09/01 09:09:41;;;;;;;;;23.50;20.50;;;;;19.67;61.06;102441.75;6269803;22;45314;-61
2021/09/01 09:12:08;;;;;;;;;27.75;21.00;;;;;19.71;60.41;102435.19;6274877;22;45200;-61
2021/09/01 09:14:39;;;;;;;;;25.75;20.25;;;;;19.73;60.65;102427.06;6275004;22;45270;-61
2021/09/01 09:17:09;;;;;;;;;21.25;20.50;;;;;19.74;60.94;102423.41;6275141;22;45404;-61
2021/09/01 09:19:40;;;;;;;;;24.00;20.75;;;;;19.75;60.49;102423.34;6274325;22;45338;-61
2021/09/01 09:22:06;;;;;;;;;29.50;23.50;;;;;19.78;60.55;102417.75;6275060;22;45235;-61
2021/09/01 09:24:33;;;;;;;;;23.75;21.00;;;;;19.86;60.76;102421.72;6275060;22;45224;-61
2021/09/01 09:26:59;;;;;;;;;26.00;24.00;;;;;19.95;60.65;102429.06;6274669;22;45687;-61
2021/09/01 09:29:24;;;;;;;;;22.25;21.25;;;;;19.99;60.21;102418.06;6274884;22;45947;-61
2021/09/01 09:32:04;;;;;;;;;26.50;24.75;;;;;20.09;60.40;102418.22;6274925;22;45301;-61
2021/09/01 09:34:36;;;;;;;;;23.75;20.75;;;;;20.19;60.06;102418.41;6274400;22;45232;-61
2021/09/01 09:37:02;;;;;;;;;22.00;22.00;;;;;20.30;59.63;102418.47;6274750;22;45441;-60
2021/09/01 09:39:41;;;;;;;;;29.50;22.25;;;;;20.45;59.46;102413.81;6274780;22;46054;-61
2021/09/01 09:42:08;;;;;;;;;25.25;18.25;;;;;20.55;58.88;102414.88;6274612;22;45244;-61
2021/09/01 09:44:34;;;;;;;;;24.00;22.00;;;;;20.60;58.91;102415.34;6274722;22;45265;-61
2021/09/01 09:46:59;;;;;;;;;24.25;23.00;;;;;20.60;58.77;102412.69;6274895;22;45298;-61
2021/09/01 09:49:30;;;;;;;;;20.00;16.00;;;;;20.60;58.84;102402.81;6274075;22;45971;-61
2021/09/01 09:51:56;;;;;;;;;26.25;24.75;;;;;20.63;57.85;102404.44;6274331;22;45242;-60
2021/09/01 09:54:24;;;;;;;;;21.00;20.00;;;;;20.59;58.55;102413.66;6274524;22;45165;-60
2021/09/01 09:57:03;;;;;;;;;22.75;21.50;;;;;20.57;58.51;102399.53;6274522;22;45274;-61
2021/09/01 09:59:33;;;;;;;;;24.50;21.50;;;;;20.58;58.57;102406.59;6274026;22;46365;-62
2021/09/01 10:01:58;;;;;;;;;24.00;21.25;;;;;20.61;58.43;102409.88;6273921;22;45255;-64
2021/09/01 10:04:26;;;;;;;;;25.00;21.25;;;;;20.61;58.46;102409.88;6274268;22;45460;-64
2021/09/01 10:06:52;;;;;;;;;46.75;35.00;;;;;20.57;58.39;102413.78;6274698;22;45165;-62
2021/09/01 10:09:18;;;;;;;;;25.50;22.00;;;;;20.54;58.32;102415.84;6274237;22;45367;-64
2021/09/01 10:11:46;;;;;;;;;25.00;21.25;;;;;20.53;58.73;102414.97;6274287;22;45161;-63
2021/09/01 10:14:17;;;;;;;;;25.00;22.00;;;;;20.56;58.69;102413.91;6274229;22;45178;-61
2021/09/01 10:16:48;;;;;;;;;24.25;20.75;;;;;20.63;58.94;102407.97;6274877;22;45365;-62
2021/09/01 10:19:18;;;;;;;;;19.50;18.00;;;;;20.79;58.22;102399.63;6274434;22;45273;-63
2021/09/01 10:22:04;;;;;;;;;27.75;20.50;;;;;20.85;58.40;102407.19;6274310;22;45360;-62
2021/09/01 10:24:30;;;;;;;;;16.00;15.50;;;;;20.88;57.93;102400.75;6274490;22;45390;-62
2021/09/01 10:27:19;;;;;;;;;18.00;17.50;;;;;21.02;57.76;102399.69;6274102;22;45128;-62
2021/09/01 10:29:55;;;;;;;;;17.50;17.25;;;;;21.04;57.34;102406.63;6273976;22;45443;-62
2021/09/01 10:32:30;;;;;;;;;21.75;19.50;;;;;21.18;57.41;102395.69;6273183;22;45252;-62
2021/09/01 10:35:10;;;;;;;;;27.50;20.75;;;;;21.23;57.20;102392.66;6273435;22;45404;-62
2021/09/01 10:37:37;;;;;;;;;19.25;17.75;;;;;21.26;57.38;102391.56;6273043;22;45400;-62
2021/09/01 10:40:04;;;;;;;;;16.75;15.25;;;;;21.33;56.94;102391.00;6273111;22;45953;-62
2021/09/01 10:42:41;;;;;;;;;20.25;17.75;;;;;21.33;56.44;102379.41;6273497;22;45268;-63
2021/09/01 10:45:13;;;;;;;;;22.00;17.50;;;;;21.36;56.71;102379.19;6273457;22;45250;-62
2021/09/01 10:47:51;;;;;;;;;20.00;18.25;;;;;21.43;56.30;102370.53;6272679;22;45289;-61
2021/09/01 10:50:32;;;;;;;;;20.25;17.25;;;;;21.56;56.42;102370.38;6274006;22;46004;-59
2021/09/01 10:52:59;;;;;;;;;22.25;18.75;;;;;21.71;55.86;102369.16;6273496;22;45218;-59
2021/09/01 10:55:26;;;;;;;;;20.50;16.25;;;;;21.84;55.59;102370.88;6273364;22;45190;-61
2021/09/01 10:58:13;;;;;;;;;19.00;17.00;;;;;22.05;55.58;102374.50;6273033;22;45321;-61
2021/09/01 11:00:39;;;;;;;;;19.25;14.00;;;;;22.20;54.82;102365.22;6272914;22;45269;-62
2021/09/01 11:03:05;;;;;;;;;22.75;20.25;;;;;22.37;54.50;102362.94;6273568;22;45244;-63
2021/09/01 11:05:31;;;;;;;;;23.75;20.00;;;;;22.48;54.60;102361.06;6273755;22;45228;-64
2021/09/01 11:07:57;;;;;;;;;20.75;20.00;;;;;22.53;53.61;102364.22;6273897;22;45458;-63
2021/09/01 11:10:23;;;;;;;;;19.50;17.00;;;;;22.57;54.01;102346.00;6273487;22;45262;-63